Terminal Aerodrome Forecast
Issued by NWS

Home | Current Version | Previous Version | Text Only | Print | Product List | Glossary Off
Versions: 1 2 3 4 5 6 7 8 9 10 11 12 13 14 15 16 17 18 19 20 21 22 23 24 25 26 27 28

000
FTUS41 KCLE 192300
TAFFDY
TAF
KFDY 192328Z 2000/2024 25010KT P6SM BKN050
      TEMPO 2000/2002 VRB20G30KT 3SM TSRA OVC025CB
     FM200200 23006KT 5SM -SHRA OVC035
     FM200400 20004KT 5SM BR BKN050
      TEMPO 2009/2013 2SM BR BKN015
     FM201400 26008KT P6SM BKN100=

USA.gov is the U.S. government's official web portal to all federal, state and local government web resources and services.